Time;durP1;ratioP1;P1;durP2;ratioP2;P2;SDS_P1;SDS_P2;PMS_P1;PMS_P2;Temp;Humidity;BMP_temperature;BMP_pressure;BME280_temperature;BME280_humidity;BME280_pressure;Samples;Min_cycle;Max_cycle;Signal;HPM_P1;HPM_P2
2023/02/19 00:01:23;;;;;;;83.18;41.58;;;10.10;99.90;;;;;;5111128;28;20393;-64
2023/02/19 00:03:51;;;;;;;78.32;40.75;;;10.10;99.90;;;;;;5110153;28;20462;-64
2023/02/19 00:06:18;;;;;;;82.15;40.45;;;10.10;99.90;;;;;;5109974;28;20112;-64
2023/02/19 00:08:44;;;;;;;84.78;40.83;;;10.10;99.90;;;;;;5109765;28;20549;-64
2023/02/19 00:11:16;;;;;;;74.55;38.55;;;10.10;99.90;;;;;;5110879;28;20063;-64
2023/02/19 00:13:44;;;;;;;82.17;40.00;;;10.10;99.90;;;;;;5111041;28;20081;-64
2023/02/19 00:16:19;;;;;;;86.03;43.35;;;10.10;99.90;;;;;;5110807;28;20024;-64
2023/02/19 00:18:46;;;;;;;79.88;41.03;;;10.10;99.90;;;;;;5109829;28;20024;-64
2023/02/19 00:21:12;;;;;;;81.00;41.40;;;10.10;99.90;;;;;;5092673;28;20030;-64
2023/02/19 00:23:38;;;;;;;82.80;41.05;;;10.10;99.90;;;;;;5110663;28;20066;-64
2023/02/19 00:26:07;;;;;;;78.57;41.88;;;10.10;99.90;;;;;;5110838;28;20365;-64
2023/02/19 00:28:32;;;;;;;79.47;40.58;;;10.10;99.90;;;;;;5110590;28;20081;-64
2023/02/19 00:31:07;;;;;;;75.95;40.47;;;10.10;99.90;;;;;;5110451;28;20028;-64
2023/02/19 00:33:33;;;;;;;82.07;42.28;;;10.10;99.90;;;;;;5109396;28;20496;-64
2023/02/19 00:36:03;;;;;;;78.25;41.20;;;10.10;99.90;;;;;;5109393;28;20106;-64
2023/02/19 00:38:29;;;;;;;80.55;40.25;;;10.10;99.90;;;;;;5092887;28;20036;-64
2023/02/19 00:40:54;;;;;;;74.85;41.78;;;10.20;99.90;;;;;;5110447;28;20420;-65
2023/02/19 00:43:20;;;;;;;84.32;44.10;;;10.10;99.90;;;;;;5110540;28;20024;-64
2023/02/19 00:45:45;;;;;;;79.90;44.60;;;10.20;99.90;;;;;;5109219;28;20107;-64
2023/02/19 00:48:11;;;;;;;85.70;46.75;;;10.20;99.90;;;;;;5110437;28;20028;-64
2023/02/19 00:50:36;;;;;;;88.05;46.90;;;10.20;99.90;;;;;;5110164;28;20389;-64
2023/02/19 00:53:02;;;;;;;81.68;45.80;;;10.20;99.90;;;;;;5110064;28;20081;-65
2023/02/19 00:55:28;;;;;;;88.20;46.40;;;10.20;99.90;;;;;;5110111;28;20103;-65
2023/02/19 00:57:53;;;;;;;85.10;46.88;;;10.20;99.90;;;;;;5109796;28;20394;-65
2023/02/19 01:00:19;;;;;;;84.50;46.28;;;10.20;99.90;;;;;;5109932;28;20523;-65
2023/02/19 01:02:44;;;;;;;86.00;46.45;;;10.30;99.90;;;;;;5109890;28;20077;-64
2023/02/19 01:05:10;;;;;;;80.53;44.30;;;10.30;99.90;;;;;;5109857;28;20392;-65
2023/02/19 01:07:36;;;;;;;77.70;45.15;;;10.30;99.90;;;;;;5109818;28;20030;-65
2023/02/19 01:10:02;;;;;;;81.90;46.00;;;10.30;99.90;;;;;;5095901;28;20058;-64
2023/02/19 01:12:28;;;;;;;77.63;45.25;;;10.30;99.90;;;;;;5095045;28;20478;-65
2023/02/19 01:14:54;;;;;;;80.35;45.55;;;10.30;99.90;;;;;;5096230;28;20024;-64
2023/02/19 01:17:20;;;;;;;83.65;47.35;;;10.30;99.90;;;;;;5096173;28;20157;-64
2023/02/19 01:19:45;;;;;;;80.95;44.78;;;10.30;99.90;;;;;;5095940;28;20375;-64
2023/02/19 01:22:11;;;;;;;78.57;43.80;;;10.30;99.90;;;;;;5094812;28;20039;-65
2023/02/19 01:24:37;;;;;;;79.13;43.85;;;10.30;99.90;;;;;;5095816;28;20022;-64
2023/02/19 01:27:03;;;;;;;77.60;45.03;;;10.30;99.90;;;;;;5094926;28;20109;-64
2023/02/19 01:29:28;;;;;;;81.22;44.67;;;10.30;99.90;;;;;;5094741;28;20054;-64
2023/02/19 01:31:54;;;;;;;81.80;45.53;;;10.30;99.90;;;;;;5095908;28;20064;-65
2023/02/19 01:34:20;;;;;;;77.60;43.53;;;10.30;99.90;;;;;;5096030;28;20024;-64
2023/02/19 01:36:45;;;;;;;84.85;44.90;;;10.30;99.90;;;;;;5095590;28;20069;-64
2023/02/19 01:39:11;;;;;;;79.22;42.15;;;10.30;99.90;;;;;;5095635;28;20028;-64
2023/02/19 01:41:39;;;;;;;78.65;43.10;;;10.30;99.90;;;;;;5095627;28;20367;-64
2023/02/19 01:44:12;;;;;;;81.72;43.97;;;10.30;99.90;;;;;;5094641;28;20488;-64
2023/02/19 01:46:40;;;;;;;79.93;42.72;;;10.30;99.90;;;;;;5094431;28;20028;-64
2023/02/19 01:49:12;;;;;;;76.93;42.55;;;10.30;99.90;;;;;;5095432;28;20024;-64
2023/02/19 01:51:44;;;;;;;76.80;42.83;;;10.20;99.90;;;;;;5095472;28;20028;-64
2023/02/19 01:54:12;;;;;;;75.85;41.85;;;10.20;99.90;;;;;;5095432;28;20108;-64
2023/02/19 01:56:41;;;;;;;76.68;40.00;;;10.20;99.90;;;;;;5095263;28;20032;-65
2023/02/19 01:59:08;;;;;;;71.40;41.13;;;10.20;99.90;;;;;;5095318;28;20435;-64
2023/02/19 02:01:37;;;;;;;79.35;41.35;;;10.20;99.90;;;;;;5094017;28;20025;-64
2023/02/19 02:04:05;;;;;;;72.28;38.80;;;10.20;99.90;;;;;;5094055;28;20028;-64
2023/02/19 02:06:35;;;;;;;70.88;39.08;;;10.20;99.90;;;;;;5095403;28;20024;-65
2023/02/19 02:11:50;;;;;;;70.07;37.88;;;10.10;99.90;;;;;;5093810;28;20085;-64
2023/02/19 02:14:20;;;;;;;74.75;39.70;;;10.10;99.90;;;;;;5094006;28;20482;-65
2023/02/19 02:17:15;;;;;;;71.40;37.63;;;10.10;99.90;;;;;;5094899;28;20031;-64
2023/02/19 02:19:58;;;;;;;65.85;37.33;;;10.10;99.90;;;;;;5094938;28;20062;-65
2023/02/19 02:22:35;;;;;;;65.28;33.63;;;10.10;99.90;;;;;;5094578;28;20016;-64
2023/02/19 02:25:32;;;;;;;75.05;36.40;;;10.10;99.90;;;;;;5095094;28;20024;-65
2023/02/19 02:28:27;;;;;;;68.65;34.20;;;10.00;99.90;;;;;;5093559;28;20016;-65
2023/02/19 02:30:57;;;;;;;62.47;32.67;;;10.10;99.90;;;;;;5094679;28;20024;-65
2023/02/19 02:33:30;;;;;;;59.17;31.85;;;10.00;99.90;;;;;;5094994;28;20069;-65
2023/02/19 02:36:02;;;;;;;66.88;32.65;;;10.10;99.90;;;;;;5094712;28;20031;-64
2023/02/19 02:38:30;;;;;;;63.92;31.67;;;10.00;99.90;;;;;;5093342;28;20032;-65
2023/02/19 02:40:56;;;;;;;64.35;31.33;;;10.00;99.90;;;;;;5093348;28;20086;-64
2023/02/19 02:43:22;;;;;;;62.60;31.00;;;10.00;99.90;;;;;;5093513;28;20417;-65
2023/02/19 02:45:48;;;;;;;61.90;29.75;;;9.90;99.90;;;;;;5093172;28;20016;-64
2023/02/19 02:48:35;;;;;;;61.28;29.08;;;9.90;99.90;;;;;;5093140;28;20036;-65
2023/02/19 02:51:24;;;;;;;56.95;27.77;;;9.90;99.90;;;;;;5094318;28;20139;-64
2023/02/19 02:56:42;;;;;;;54.70;27.42;;;9.90;99.90;;;;;;5092719;28;20394;-64
2023/02/19 02:59:12;;;;;;;54.42;26.70;;;9.90;99.90;;;;;;5092981;28;20498;-65
2023/02/19 03:04:36;;;;;;;55.25;27.60;;;9.90;99.90;;;;;;5090793;28;20382;-65
2023/02/19 03:07:08;;;;;;;53.05;25.15;;;9.80;99.90;;;;;;5090544;28;20035;-65
2023/02/19 03:09:39;;;;;;;50.53;24.65;;;9.80;99.90;;;;;;5090782;28;20389;-65
2023/02/19 03:20:40;;;;;;;41.25;20.52;;;9.80;99.90;;;;;;5090242;28;20036;-65
2023/02/19 03:23:09;;;;;;;41.92;19.77;;;9.80;99.90;;;;;;5089208;28;20021;-65
2023/02/19 03:26:07;;;;;;;42.17;20.58;;;9.80;99.90;;;;;;5089327;28;20438;-65
2023/02/19 03:31:16;;;;;;;34.70;17.30;;;9.80;99.90;;;;;;5090095;28;20017;-65
2023/02/19 03:33:45;;;;;;;35.15;17.17;;;9.70;99.90;;;;;;5090246;28;20028;-65
2023/02/19 03:36:14;;;;;;;36.13;16.63;;;9.80;99.90;;;;;;5090175;28;20020;-65
2023/02/19 03:38:58;;;;;;;30.58;16.95;;;9.80;99.90;;;;;;5090142;28;20028;-65
2023/02/19 03:41:54;;;;;;;34.05;17.45;;;9.70;99.90;;;;;;5090115;28;20115;-65
2023/02/19 03:44:46;;;;;;;34.67;16.73;;;9.70;99.90;;;;;;5089819;28;20028;-65
2023/02/19 03:47:40;;;;;;;38.63;17.40;;;9.70;99.90;;;;;;5089891;28;20059;-65
2023/02/19 03:50:16;;;;;;;31.90;17.13;;;9.70;99.90;;;;;;5089760;28;20016;-65
2023/02/19 03:52:58;;;;;;;36.00;18.27;;;9.70;99.90;;;;;;5090351;28;20413;-65
2023/02/19 03:55:46;;;;;;;35.05;17.58;;;9.70;99.90;;;;;;5090115;28;20028;-65
2023/02/19 03:58:31;;;;;;;41.00;19.85;;;9.70;99.90;;;;;;5089841;28;20397;-65
2023/02/19 04:01:20;;;;;;;33.42;17.48;;;9.70;99.90;;;;;;5089805;28;20539;-65
2023/02/19 04:03:51;;;;;;;34.17;18.23;;;9.60;99.90;;;;;;5089291;28;20051;-65
2023/02/19 04:06:22;;;;;;;35.40;17.75;;;9.60;99.90;;;;;;5088707;28;20089;-65
2023/02/19 04:08:53;;;;;;;29.70;15.00;;;9.60;99.90;;;;;;5089759;28;20107;-65
2023/02/19 04:11:21;;;;;;;25.75;13.93;;;9.50;99.90;;;;;;5088249;28;20025;-65
2023/02/19 04:13:54;;;;;;;21.30;11.55;;;9.50;99.90;;;;;;5087851;28;20020;-65
2023/02/19 04:16:25;;;;;;;16.90;10.40;;;9.40;99.90;;;;;;5074736;28;20020;-65
2023/02/19 04:18:55;;;;;;;22.65;10.55;;;9.40;99.90;;;;;;5076160;28;20115;-65
2023/02/19 04:21:23;;;;;;;17.55;9.25;;;9.30;99.90;;;;;;5075851;28;20024;-65
2023/02/19 04:23:49;;;;;;;16.67;10.32;;;9.30;99.90;;;;;;5075726;28;20504;-65
2023/02/19 04:26:16;;;;;;;18.38;9.50;;;9.30;99.90;;;;;;5074614;28;20025;-65
2023/02/19 04:28:43;;;;;;;26.25;11.45;;;9.30;99.90;;;;;;5075776;28;20394;-65
2023/02/19 04:31:09;;;;;;;20.60;11.07;;;9.30;99.90;;;;;;5075671;28;20032;-65
2023/02/19 04:33:35;;;;;;;18.65;11.27;;;9.30;99.90;;;;;;5075743;28;20029;-65
2023/02/19 04:36:00;;;;;;;24.10;12.82;;;9.30;99.90;;;;;;5075621;28;20024;-65
2023/02/19 04:38:26;;;;;;;25.48;13.70;;;9.30;99.90;;;;;;5075726;28;20498;-65
2023/02/19 04:40:51;;;;;;;27.60;14.85;;;9.30;99.90;;;;;;5075619;28;20531;-65
2023/02/19 04:43:17;;;;;;;33.03;17.40;;;9.30;99.90;;;;;;5075364;28;20024;-65
2023/02/19 04:45:43;;;;;;;44.90;20.00;;;9.30;99.90;;;;;;5074441;28;20501;-65
2023/02/19 04:48:09;;;;;;;43.65;22.92;;;9.30;99.90;;;;;;5075620;28;20021;-65
2023/02/19 04:50:38;;;;;;;44.50;24.17;;;9.30;99.90;;;;;;5075426;28;20086;-65
2023/02/19 04:53:03;;;;;;;53.03;26.25;;;9.30;99.90;;;;;;5074377;28;20470;-65
2023/02/19 04:55:29;;;;;;;58.90;27.83;;;9.40;99.90;;;;;;5075223;28;20108;-65
2023/02/19 04:57:54;;;;;;;55.65;28.55;;;9.40;99.90;;;;;;5075181;28;20028;-65
2023/02/19 05:00:20;;;;;;;50.40;26.42;;;9.40;99.90;;;;;;5075093;28;20033;-65
2023/02/19 05:02:45;;;;;;;50.25;26.83;;;9.40;99.90;;;;;;5074831;28;20075;-65
2023/02/19 05:05:11;;;;;;;55.38;27.20;;;9.40;99.90;;;;;;5075048;28;20035;-65
2023/02/19 05:07:36;;;;;;;51.15;25.98;;;9.40;99.90;;;;;;5074908;28;20094;-65
2023/02/19 05:10:02;;;;;;;47.50;24.85;;;9.40;99.90;;;;;;5075043;28;20020;-65
2023/02/19 05:12:29;;;;;;;39.90;23.35;;;9.40;99.90;;;;;;5075027;28;20162;-65
2023/02/19 05:14:55;;;;;;;44.88;25.05;;;9.40;99.90;;;;;;5075001;28;20390;-65
2023/02/19 05:17:20;;;;;;;48.38;23.33;;;9.40;99.90;;;;;;5074762;28;20024;-65
2023/02/19 05:19:46;;;;;;;41.50;23.77;;;9.40;99.90;;;;;;5074884;28;20036;-65
2023/02/19 05:22:12;;;;;;;48.47;25.02;;;9.40;99.90;;;;;;5074623;28;20033;-65
2023/02/19 05:24:37;;;;;;;48.95;23.23;;;9.40;99.90;;;;;;5074936;28;20032;-65
2023/02/19 05:27:03;;;;;;;47.78;24.27;;;9.40;99.90;;;;;;5073811;28;20028;-65
2023/02/19 05:29:30;;;;;;;43.70;23.85;;;9.30;99.90;;;;;;5074639;28;20025;-65
2023/02/19 05:31:55;;;;;;;41.72;23.30;;;9.30;99.90;;;;;;5074531;28;20021;-65
2023/02/19 05:34:21;;;;;;;52.22;24.05;;;9.30;99.90;;;;;;5074405;28;20036;-65
2023/02/19 05:36:46;;;;;;;41.42;23.83;;;9.30;99.90;;;;;;5074556;28;20039;-65
2023/02/19 05:39:12;;;;;;;41.35;21.88;;;9.30;99.90;;;;;;5074338;28;20071;-65
2023/02/19 05:41:38;;;;;;;42.58;23.17;;;9.30;99.90;;;;;;5074298;28;20111;-65
2023/02/19 05:44:03;;;;;;;44.60;22.33;;;9.30;99.90;;;;;;5073104;28;20527;-65
2023/02/19 05:46:29;;;;;;;53.72;24.05;;;9.30;99.90;;;;;;5073084;28;20032;-65
2023/02/19 05:48:57;;;;;;;50.38;24.50;;;9.20;99.90;;;;;;5073291;28;20021;-65
2023/02/19 05:51:24;;;;;;;48.30;24.23;;;9.20;99.90;;;;;;5072982;28;20148;-65
2023/02/19 05:53:50;;;;;;;49.65;25.10;;;9.20;99.90;;;;;;5074110;28;20036;-65
2023/02/19 05:56:28;;;;;;;52.72;24.48;;;9.20;99.90;;;;;;5074032;28;20037;-65
2023/02/19 05:58:54;;;;;;;48.67;23.52;;;9.20;99.90;;;;;;5073011;28;20032;-65
2023/02/19 06:01:21;;;;;;;45.60;24.25;;;9.20;99.90;;;;;;5073920;28;20020;-65
2023/02/19 06:03:47;;;;;;;42.85;23.70;;;9.20;99.90;;;;;;5073672;28;20138;-65
2023/02/19 06:06:14;;;;;;;47.17;23.15;;;9.20;99.90;;;;;;5073840;28;20055;-65
2023/02/19 06:08:40;;;;;;;41.78;22.98;;;9.20;99.90;;;;;;5073857;28;20390;-65
2023/02/19 06:11:05;;;;;;;43.22;22.83;;;9.20;99.90;;;;;;5073931;28;20028;-65
2023/02/19 06:13:31;;;;;;;35.45;20.77;;;9.20;99.90;;;;;;5073804;28;20039;-65
2023/02/19 06:15:56;;;;;;;38.65;21.25;;;9.20;99.90;;;;;;5073826;28;20060;-65
2023/02/19 06:18:22;;;;;;;41.95;21.20;;;9.20;99.90;;;;;;5073720;28;20060;-65
2023/02/19 06:20:47;;;;;;;38.00;20.60;;;9.20;99.90;;;;;;5073781;28;20087;-65
2023/02/19 06:23:13;;;;;;;44.83;22.83;;;9.20;99.90;;;;;;5073491;28;20078;-65
2023/02/19 06:25:38;;;;;;;36.33;20.70;;;9.20;99.90;;;;;;5073759;28;20394;-65
2023/02/19 06:28:04;;;;;;;45.00;21.20;;;9.20;99.90;;;;;;5074040;28;20028;-65
2023/02/19 06:30:30;;;;;;;36.20;20.83;;;9.20;99.90;;;;;;5073579;28;20028;-65
2023/02/19 06:32:55;;;;;;;41.97;19.85;;;9.20;99.90;;;;;;5073540;28;20029;-65
2023/02/19 06:35:21;;;;;;;32.85;18.80;;;9.20;99.90;;;;;;5073370;28;20036;-65
2023/02/19 06:37:48;;;;;;;33.47;19.45;;;9.20;99.90;;;;;;5073158;28;20093;-65
2023/02/19 06:40:13;;;;;;;33.53;18.02;;;9.20;99.90;;;;;;5073370;28;20121;-65
2023/02/19 06:42:39;;;;;;;32.30;17.63;;;9.20;99.90;;;;;;5073485;28;20111;-65
2023/02/19 06:45:05;;;;;;;34.05;19.48;;;9.20;99.90;;;;;;5073354;28;20029;-65
2023/02/19 06:47:32;;;;;;;34.08;18.48;;;9.10;99.90;;;;;;5073327;28;20451;-65
2023/02/19 06:49:58;;;;;;;33.17;19.33;;;9.10;99.90;;;;;;5073347;28;20023;-65
2023/02/19 06:52:24;;;;;;;35.25;18.77;;;9.10;99.90;;;;;;5073417;28;20021;-65
2023/02/19 06:54:49;;;;;;;39.53;20.45;;;9.10;99.90;;;;;;5073190;28;20066;-66
2023/02/19 06:57:15;;;;;;;36.25;20.50;;;9.10;99.90;;;;;;5073344;28;20039;-65
2023/02/19 06:59:40;;;;;;;37.47;20.85;;;9.10;99.90;;;;;;5073362;28;20051;-65
2023/02/19 07:02:09;;;;;;;37.88;21.70;;;9.10;99.90;;;;;;5073092;28;20530;-65
2023/02/19 07:04:34;;;;;;;40.38;21.55;;;9.10;99.90;;;;;;5072989;28;20063;-65
2023/02/19 07:07:00;;;;;;;46.92;22.95;;;9.10;99.90;;;;;;5073272;28;20427;-64
2023/02/19 07:09:27;;;;;;;39.35;22.75;;;9.10;99.90;;;;;;5073212;28;20017;-64
2023/02/19 07:11:52;;;;;;;45.83;22.70;;;9.10;99.90;;;;;;5073010;28;20028;-64
2023/02/19 07:14:19;;;;;;;47.38;23.65;;;9.10;99.90;;;;;;5072846;28;20029;-64
2023/02/19 07:16:46;;;;;;;43.45;22.67;;;9.10;99.90;;;;;;5072872;28;20040;-64
2023/02/19 07:19:12;;;;;;;50.67;23.40;;;9.10;99.90;;;;;;5073117;28;20032;-64
2023/02/19 07:21:37;;;;;;;47.83;24.35;;;9.10;99.90;;;;;;5072968;28;20478;-64
2023/02/19 07:24:04;;;;;;;51.55;25.27;;;9.10;99.90;;;;;;5071699;28;20111;-65
2023/02/19 07:26:29;;;;;;;43.00;23.58;;;9.10;99.90;;;;;;5072919;28;20028;-64
2023/02/19 07:28:55;;;;;;;43.63;22.40;;;9.10;99.90;;;;;;5072841;28;20027;-64
2023/02/19 07:31:22;;;;;;;42.28;23.15;;;9.10;99.90;;;;;;5072819;28;20016;-65
2023/02/19 07:33:48;;;;;;;45.00;22.65;;;9.10;99.90;;;;;;5072857;28;20394;-64
2023/02/19 07:36:16;;;;;;;37.50;19.77;;;9.10;99.90;;;;;;5072768;28;20111;-65
2023/02/19 07:38:43;;;;;;;41.03;20.20;;;9.10;99.90;;;;;;5071602;28;20474;-64
2023/02/19 07:41:09;;;;;;;29.45;17.50;;;9.00;99.90;;;;;;5071651;28;20032;-64
2023/02/19 07:43:36;;;;;;;31.98;18.80;;;9.10;99.90;;;;;;5072672;28;20036;-65
2023/02/19 07:46:09;;;;;;;33.75;18.17;;;9.10;99.90;;;;;;5072760;28;20028;-64
2023/02/19 07:48:35;;;;;;;33.65;17.98;;;9.10;99.90;;;;;;5072712;28;20128;-65
2023/02/19 07:51:02;;;;;;;30.33;17.23;;;9.10;99.90;;;;;;5075749;28;20033;-64
2023/02/19 07:53:28;;;;;;;31.83;16.90;;;9.00;99.90;;;;;;5076444;28;20032;-64
2023/02/19 07:55:58;;;;;;;25.38;15.57;;;9.00;99.90;;;;;;5076365;28;20024;-64
2023/02/19 07:58:24;;;;;;;27.77;13.35;;;9.00;99.90;;;;;;5076547;28;20055;-64
2023/02/19 08:00:49;;;;;;;26.63;14.80;;;9.00;99.90;;;;;;5076248;28;20093;-65
2023/02/19 08:03:15;;;;;;;22.33;13.38;;;9.10;99.90;;;;;;5075883;28;20486;-65
2023/02/19 08:05:41;;;;;;;24.63;13.30;;;9.10;99.90;;;;;;5076251;28;20036;-65
2023/02/19 08:08:08;;;;;;;24.58;12.15;;;9.20;99.90;;;;;;5076169;28;20555;-65
2023/02/19 08:13:21;;;;;;;17.33;11.30;;;9.20;99.90;;;;;;5075846;28;20025;-65
2023/02/19 08:15:50;;;;;;;20.05;11.65;;;9.20;99.90;;;;;;5075987;28;20025;-64
2023/02/19 08:18:17;;;;;;;27.20;12.75;;;9.20;99.90;;;;;;5075995;28;20097;-64
2023/02/19 08:20:43;;;;;;;22.95;14.45;;;9.20;99.90;;;;;;5074740;28;20070;-64
2023/02/19 08:23:10;;;;;;;24.30;13.85;;;9.20;99.90;;;;;;5075568;28;20402;-65
2023/02/19 08:25:37;;;;;;;25.77;13.15;;;9.20;99.90;;;;;;5074625;28;20032;-64
2023/02/19 08:28:03;;;;;;;23.55;13.50;;;9.30;99.90;;;;;;5075828;28;20021;-64
2023/02/19 08:30:30;;;;;;;26.20;13.65;;;9.40;99.90;;;;;;5074645;28;20024;-64
2023/02/19 08:32:57;;;;;;;26.58;13.90;;;9.50;99.90;;;;;;5074480;28;20025;-64
2023/02/19 08:35:23;;;;;;;25.77;14.18;;;9.60;99.90;;;;;;5075871;28;20024;-64
2023/02/19 08:37:48;;;;;;;22.95;13.68;;;9.60;99.90;;;;;;5075564;28;20456;-64
2023/02/19 08:40:14;;;;;;;23.05;14.43;;;9.60;99.90;;;;;;5075739;28;20104;-64
2023/02/19 08:42:39;;;;;;;19.25;13.05;;;9.60;99.90;;;;;;5075470;28;20123;-64
2023/02/19 08:45:05;;;;;;;20.65;12.30;;;9.60;99.90;;;;;;5075692;28;20031;-64
2023/02/19 08:47:33;;;;;;;21.55;13.05;;;9.60;99.90;;;;;;5075518;28;20024;-64
2023/02/19 08:49:59;;;;;;;22.38;11.85;;;9.60;99.90;;;;;;5074350;28;20025;-64
2023/02/19 08:52:24;;;;;;;18.35;11.63;;;9.50;99.90;;;;;;5075322;28;20493;-64
2023/02/19 08:54:50;;;;;;;16.83;10.65;;;9.50;99.90;;;;;;5075250;28;20028;-64
2023/02/19 08:57:15;;;;;;;16.77;10.07;;;9.60;99.90;;;;;;5075256;28;20025;-64
2023/02/19 08:59:41;;;;;;;18.20;10.23;;;9.60;99.90;;;;;;5075228;28;20031;-64
2023/02/19 09:02:08;;;;;;;14.15;8.82;;;9.70;99.90;;;;;;5074837;28;20035;-64
2023/02/19 09:04:35;;;;;;;15.55;8.88;;;9.70;99.90;;;;;;5075060;28;20029;-64
2023/02/19 09:07:00;;;;;;;15.02;9.20;;;9.80;99.90;;;;;;5075006;28;20020;-64
2023/02/19 09:09:26;;;;;;;13.55;8.40;;;9.90;99.90;;;;;;5073831;28;20034;-64
2023/02/19 09:11:51;;;;;;;10.40;8.20;;;9.80;99.90;;;;;;5075105;28;20107;-64
2023/02/19 09:14:17;;;;;;;13.82;8.85;;;9.80;99.90;;;;;;5074914;28;20035;-64
2023/02/19 09:16:42;;;;;;;18.92;9.18;;;9.80;99.90;;;;;;5074997;28;20036;-64
2023/02/19 09:19:08;;;;;;;6.40;3.70;;;9.80;99.90;;;;;;5074885;28;20032;-65
2023/02/19 09:21:33;;;;;;;5.90;3.30;;;9.10;99.90;;;;;;5074850;28;20036;-64
2023/02/19 09:23:59;;;;;;;4.70;3.20;;;8.70;99.90;;;;;;5074618;28;20044;-64
2023/02/19 09:26:24;;;;;;;4.22;2.90;;;8.40;99.90;;;;;;5074647;28;20024;-64
2023/02/19 09:28:50;;;;;;;6.28;3.67;;;8.10;99.90;;;;;;5074573;28;20024;-64
2023/02/19 09:31:16;;;;;;;7.18;3.45;;;8.00;99.90;;;;;;5074554;28;20432;-64
2023/02/19 09:33:43;;;;;;;4.82;3.50;;;8.00;99.90;;;;;;5074562;28;20032;-64
2023/02/19 09:36:09;;;;;;;6.15;3.60;;;7.80;99.90;;;;;;5074550;28;20513;-64
2023/02/19 09:38:34;;;;;;;5.20;3.72;;;7.80;99.90;;;;;;5074644;28;20021;-64
2023/02/19 09:41:07;;;;;;;5.60;3.85;;;7.60;99.90;;;;;;5074624;28;20020;-64
2023/02/19 09:43:32;;;;;;;7.22;3.80;;;7.60;99.90;;;;;;5073331;28;20033;-64
2023/02/19 09:46:10;;;;;;;6.05;3.92;;;7.60;99.90;;;;;;5074443;28;20074;-64
2023/02/19 09:48:36;;;;;;;8.85;3.70;;;7.50;99.90;;;;;;5074094;28;20024;-64
2023/02/19 09:51:03;;;;;;;4.82;3.83;;;7.50;99.90;;;;;;5074418;28;20032;-64
2023/02/19 09:53:39;;;;;;;5.53;3.15;;;7.40;99.90;;;;;;5073160;28;20173;-64
2023/02/19 09:56:06;;;;;;;5.38;3.25;;;7.40;99.90;;;;;;5073935;28;20112;-64
2023/02/19 09:58:34;;;;;;;6.05;3.75;;;7.40;99.90;;;;;;5073102;28;20504;-64
2023/02/19 10:01:03;;;;;;;4.82;3.38;;;7.50;99.90;;;;;;5074066;28;20082;-64
2023/02/19 10:03:33;;;;;;;6.30;3.40;;;7.50;99.90;;;;;;5072530;28;20052;-64
2023/02/19 10:06:02;;;;;;;5.53;3.47;;;7.50;99.90;;;;;;5072959;28;20522;-64
2023/02/19 10:08:32;;;;;;;7.20;3.65;;;7.50;99.90;;;;;;5073987;28;20485;-64
2023/02/19 10:11:00;;;;;;;6.88;4.15;;;7.50;99.90;;;;;;5073902;28;20027;-64
2023/02/19 10:13:33;;;;;;;5.95;3.10;;;7.40;99.90;;;;;;5073515;28;20033;-64
2023/02/19 10:16:02;;;;;;;5.53;3.15;;;7.40;99.90;;;;;;5073937;28;20032;-64
2023/02/19 10:18:36;;;;;;;8.85;3.60;;;7.30;99.90;;;;;;5072781;28;20481;-64
2023/02/19 10:21:02;;;;;;;4.30;3.00;;;7.50;99.90;;;;;;5073969;28;20375;-64
2023/02/19 10:23:27;;;;;;;3.08;2.35;;;7.50;99.90;;;;;;5073391;28;20028;-64
2023/02/19 10:25:56;;;;;;;3.88;2.65;;;7.30;99.90;;;;;;5073524;28;20035;-64
2023/02/19 10:28:32;;;;;;;3.42;2.65;;;7.40;99.90;;;;;;5073708;28;20052;-64
2023/02/19 10:31:00;;;;;;;5.40;2.55;;;7.50;99.90;;;;;;5073660;28;20047;-64
2023/02/19 10:33:26;;;;;;;5.15;2.55;;;7.50;99.90;;;;;;5072091;28;20035;-64
2023/02/19 10:38:35;;;;;;;2.83;2.10;;;7.40;99.90;;;;;;5111243;27;20372;-64
2023/02/19 10:41:05;;;;;;;2.10;1.75;;;7.20;99.90;;;;;;5111347;28;20032;-64
2023/02/19 10:43:35;;;;;;;3.25;1.90;;;7.20;99.90;;;;;;5111305;28;20020;-64
2023/02/19 10:46:14;;;;;;;2.50;1.65;;;7.10;99.90;;;;;;5109963;28;20485;-64
2023/02/19 10:48:48;;;;;;;2.00;1.60;;;7.20;99.90;;;;;;5111003;28;20130;-63
2023/02/19 10:51:20;;;;;;;1.88;1.42;;;7.20;99.90;;;;;;5110923;28;20024;-63
2023/02/19 10:53:48;;;;;;;1.77;1.52;;;7.30;99.90;;;;;;5111138;28;20028;-63
2023/02/19 10:56:23;;;;;;;1.90;1.55;;;7.50;99.90;;;;;;5110709;28;20031;-64
2023/02/19 10:58:49;;;;;;;4.05;1.63;;;7.50;99.90;;;;;;5111015;28;20022;-64
2023/02/19 11:01:20;;;;;;;2.35;1.55;;;7.70;99.90;;;;;;5109561;28;20016;-64
2023/02/19 11:03:51;;;;;;;1.83;1.30;;;7.80;99.90;;;;;;5110611;28;20065;-64
2023/02/19 11:06:20;;;;;;;1.75;1.50;;;7.80;99.90;;;;;;5109421;28;20016;-64
2023/02/19 11:11:31;;;;;;;3.45;1.65;;;7.90;99.90;;;;;;5111225;27;20358;-63
2023/02/19 11:14:00;;;;;;;4.10;1.45;;;7.90;99.90;;;;;;5109831;28;20397;-63
2023/02/19 11:16:45;;;;;;;2.42;1.63;;;7.80;99.90;;;;;;5111142;28;20077;-63
2023/02/19 11:19:35;;;;;;;4.47;2.10;;;7.70;99.90;;;;;;5111104;28;20032;-63
2023/02/19 11:22:16;;;;;;;2.60;2.10;;;8.00;99.90;;;;;;5110934;28;20024;-63
2023/02/19 11:24:48;;;;;;;3.08;2.03;;;8.00;99.90;;;;;;5109914;28;20047;-63
2023/02/19 11:27:20;;;;;;;2.95;2.08;;;8.20;99.90;;;;;;5110973;28;20028;-63
2023/02/19 11:29:46;;;;;;;2.70;1.95;;;8.30;99.90;;;;;;5110725;28;20081;-63
2023/02/19 11:32:24;;;;;;;2.22;1.73;;;8.30;99.90;;;;;;5110923;28;20381;-63
2023/02/19 11:34:49;;;;;;;2.80;1.95;;;7.90;99.90;;;;;;5109445;28;20067;-63
2023/02/19 11:37:17;;;;;;;2.20;1.85;;;7.90;99.90;;;;;;5109462;28;20020;-63
2023/02/19 11:39:46;;;;;;;4.43;1.92;;;8.10;99.90;;;;;;5110628;28;20024;-63
2023/02/19 11:42:38;;;;;;;2.47;2.00;;;8.00;99.90;;;;;;5110611;28;20028;-63
2023/02/19 11:45:28;;;;;;;3.47;2.40;;;7.90;99.90;;;;;;5110750;28;20078;-63
2023/02/19 11:48:08;;;;;;;3.25;2.45;;;7.90;99.90;;;;;;5109396;28;20024;-63
2023/02/19 11:51:07;;;;;;;3.17;2.17;;;8.00;99.90;;;;;;5110516;28;20049;-63
2023/02/19 11:53:36;;;;;;;2.75;2.08;;;8.20;99.90;;;;;;5110276;28;20397;-63
2023/02/19 11:56:17;;;;;;;3.55;2.58;;;8.20;99.90;;;;;;5110403;28;20393;-63
2023/02/19 11:58:53;;;;;;;6.00;2.92;;;8.30;99.90;;;;;;5110329;28;20462;-63
2023/02/19 12:01:58;;;;;;;3.70;2.80;;;8.10;99.90;;;;;;5110175;28;20024;-63
2023/02/19 12:04:48;;;;;;;3.50;2.65;;;8.20;99.90;;;;;;5110015;28;20027;-63
2023/02/19 12:07:40;;;;;;;3.53;2.53;;;8.20;99.90;;;;;;5110070;28;20036;-63
2023/02/19 12:10:46;;;;;;;3.42;2.70;;;8.20;99.90;;;;;;5109721;28;20459;-64
2023/02/19 12:13:38;;;;;;;2.90;2.40;;;8.20;99.90;;;;;;5109864;28;20030;-63
2023/02/19 12:16:32;;;;;;;3.55;2.40;;;8.20;99.90;;;;;;5109653;28;20027;-63
2023/02/19 12:19:12;;;;;;;3.22;2.50;;;8.30;99.90;;;;;;5109820;28;20028;-64
2023/02/19 12:22:00;;;;;;;3.75;2.63;;;8.60;99.90;;;;;;5103000;28;20474;-64
2023/02/19 12:25:06;;;;;;;4.38;2.45;;;8.60;99.90;;;;;;5096154;28;20103;-64
2023/02/19 12:28:00;;;;;;;4.63;2.70;;;8.80;99.90;;;;;;5095978;28;20024;-64
2023/02/19 12:30:44;;;;;;;;;;;8.90;99.90;;;;;;5096309;28;20081;-64
2023/02/19 12:36:48;;;;;;;2.90;2.15;;;8.80;99.90;;;;;;5111066;27;20416;-64
2023/02/19 12:42:10;;;;;;;4.57;2.65;;;8.80;99.90;;;;;;5111186;27;20376;-64
2023/02/19 12:44:58;;;;;;;3.22;2.20;;;9.00;99.90;;;;;;5110963;28;20028;-64
2023/02/19 12:47:30;;;;;;;3.03;2.42;;;9.00;99.90;;;;;;5111024;28;20051;-64
2023/02/19 12:50:07;;;;;;;3.28;2.60;;;8.90;99.90;;;;;;5110776;28;20053;-64
2023/02/19 12:52:39;;;;;;;4.00;3.03;;;8.90;99.90;;;;;;5109918;28;20418;-64
2023/02/19 12:55:28;;;;;;;4.03;2.78;;;8.90;99.90;;;;;;5110975;28;20438;-64
2023/02/19 12:57:55;;;;;;;5.07;2.50;;;8.80;99.90;;;;;;5109473;28;20056;-64
2023/02/19 13:00:47;;;;;;;2.97;2.60;;;8.60;99.90;;;;;;5110676;28;20020;-64
2023/02/19 13:03:33;;;;;;;4.07;2.33;;;8.60;99.90;;;;;;5110793;28;20024;-64
2023/02/19 13:06:39;;;;;;;4.38;2.90;;;8.60;99.90;;;;;;5110636;28;20030;-64
2023/02/19 13:09:14;;;;;;;3.90;2.15;;;8.50;99.90;;;;;;5110764;28;20053;-64
2023/02/19 13:12:10;;;;;;;2.65;2.30;;;8.40;99.90;;;;;;5110442;28;20032;-64
2023/02/19 13:14:41;;;;;;;3.63;2.53;;;8.40;99.90;;;;;;5110453;28;20031;-64
2023/02/19 13:17:30;;;;;;;3.58;2.13;;;8.40;99.90;;;;;;5110465;28;20050;-64
2023/02/19 13:20:06;;;;;;;2.95;2.28;;;8.40;99.90;;;;;;5110276;28;20442;-63
2023/02/19 13:25:47;;;;;;;6.70;2.75;;;8.30;99.90;;;;;;5110141;28;20019;-64
2023/02/19 13:28:24;;;;;;;3.28;2.28;;;8.50;99.90;;;;;;5110349;28;20029;-64
2023/02/19 13:31:24;;;;;;;2.60;2.10;;;8.30;99.90;;;;;;5110431;28;20024;-64
2023/02/19 13:34:08;;;;;;;2.80;2.20;;;8.30;99.90;;;;;;5110270;28;20035;-64
2023/02/19 13:36:34;;;;;;;;;;;8.40;99.90;;;;;;5110739;28;20114;-63